createdAt,value
2016-09-26T00:00:55.948Z,15.92
2016-09-26T00:01:55.885Z,15.8
2016-09-26T00:02:56.063Z,15.86
2016-09-26T00:03:55.856Z,15.78
2016-09-26T00:04:55.981Z,15.81
2016-09-26T00:05:55.832Z,15.83
2016-09-26T00:06:55.993Z,15.77
2016-09-26T00:07:55.893Z,15.8
2016-09-26T00:08:55.905Z,15.77
2016-09-26T00:09:55.973Z,15.73
2016-09-26T00:10:55.952Z,15.78
2016-09-26T00:11:55.988Z,15.8
2016-09-26T00:12:55.998Z,15.74
2016-09-26T00:13:55.924Z,15.78
2016-09-26T00:14:55.927Z,15.74
2016-09-26T00:15:55.927Z,15.71
2016-09-26T00:16:55.973Z,15.77
2016-09-26T00:17:55.933Z,15.7
2016-09-26T00:18:56.203Z,15.75
2016-09-26T00:19:55.885Z,15.7
2016-09-26T00:20:55.944Z,15.65
2016-09-26T00:21:55.920Z,15.67
2016-09-26T00:22:55.890Z,15.63
2016-09-26T00:23:55.998Z,15.7
2016-09-26T00:24:55.995Z,15.68
2016-09-26T00:25:56.048Z,15.75
2016-09-26T00:26:56.040Z,15.68
2016-09-26T00:27:55.952Z,15.62
2016-09-26T00:28:55.953Z,15.67
2016-09-26T00:29:56.071Z,15.63
2016-09-26T00:30:56.029Z,15.62
2016-09-26T00:31:55.995Z,15.65
2016-09-26T00:32:56.042Z,15.56
2016-09-26T00:33:56.017Z,15.63
2016-09-26T00:34:56.181Z,15.62
2016-09-26T00:35:56.064Z,15.56
2016-09-26T00:36:55.993Z,15.59
2016-09-26T00:37:56.061Z,15.63
2016-09-26T00:38:56.083Z,15.59
2016-09-26T00:39:55.970Z,15.65
2016-09-26T00:40:56.011Z,15.6
2016-09-26T00:41:56.048Z,15.6
2016-09-26T00:42:55.934Z,15.6
2016-09-26T00:43:56.035Z,15.53
2016-09-26T00:44:56.085Z,15.53
2016-09-26T00:45:56.048Z,15.49
2016-09-26T00:46:56.081Z,15.45
2016-09-26T00:47:56.052Z,15.51
2016-09-26T00:48:56.009Z,15.49
2016-09-26T00:49:56.112Z,15.47
2016-09-26T00:50:56.112Z,15.51
2016-09-26T00:51:56.079Z,15.44
2016-09-26T00:52:56.066Z,15.43
2016-09-26T00:53:56.087Z,15.41
2016-09-26T00:54:56.045Z,15.44
2016-09-26T00:55:56.096Z,15.52
2016-09-26T00:56:56.034Z,15.44
2016-09-26T00:57:56.091Z,15.43
2016-09-26T00:58:56.056Z,15.37
2016-09-26T00:59:56.135Z,15.47
2016-09-26T01:00:56.064Z,15.45
2016-09-26T01:01:56.059Z,15.43
2016-09-26T01:02:56.055Z,15.44
2016-09-26T01:03:56.026Z,15.35
2016-09-26T01:04:56.110Z,15.43
2016-09-26T01:05:56.076Z,15.4
2016-09-26T01:06:56.242Z,15.38
2016-09-26T01:07:56.127Z,15.44
2016-09-26T01:08:56.114Z,15.44
2016-09-26T01:09:56.066Z,15.49
2016-09-26T01:10:56.089Z,15.45
2016-09-26T01:11:56.116Z,15.4
2016-09-26T01:12:56.084Z,15.44
2016-09-26T01:13:56.040Z,15.4
2016-09-26T01:14:56.135Z,15.33
2016-09-26T01:15:56.112Z,15.37
2016-09-26T01:16:56.185Z,15.37
2016-09-26T01:17:56.168Z,15.41
2016-09-26T01:18:56.119Z,15.45
2016-09-26T01:19:56.161Z,15.41
2016-09-26T01:20:56.090Z,15.43
2016-09-26T01:21:56.111Z,15.33
2016-09-26T01:22:56.224Z,15.45
2016-09-26T01:23:56.164Z,15.4
2016-09-26T01:24:56.118Z,15.38
2016-09-26T01:25:56.130Z,15.41
2016-09-26T01:26:56.168Z,15.4
2016-09-26T01:27:56.214Z,15.31
2016-09-26T01:28:56.218Z,15.44
2016-09-26T01:29:56.193Z,15.4
2016-09-26T01:30:56.187Z,15.38
2016-09-26T01:31:56.201Z,15.38
2016-09-26T01:32:56.175Z,15.37
2016-09-26T01:33:56.180Z,15.4
2016-09-26T01:34:56.067Z,15.4
2016-09-26T01:35:56.194Z,15.35
2016-09-26T01:36:56.195Z,15.45
2016-09-26T01:37:56.168Z,15.4
2016-09-26T01:38:56.327Z,15.45
2016-09-26T01:39:56.103Z,15.47
2016-09-26T01:40:56.200Z,15.43
2016-09-26T01:41:56.124Z,15.45
2016-09-26T01:42:56.176Z,15.41
2016-09-26T01:43:56.276Z,15.47
2016-09-26T01:44:56.214Z,15.4
2016-09-26T01:45:56.196Z,15.37
2016-09-26T01:46:56.223Z,15.4
2016-09-26T01:47:56.223Z,15.41
2016-09-26T01:48:56.161Z,15.52
2016-09-26T01:49:56.205Z,15.37
2016-09-26T01:50:56.278Z,15.4
2016-09-26T01:51:56.272Z,15.51
2016-09-26T01:52:56.279Z,15.44
2016-09-26T01:53:56.153Z,15.45
2016-09-26T01:54:56.415Z,15.41
2016-09-26T01:55:56.223Z,15.38
2016-09-26T01:56:56.214Z,15.45
2016-09-26T01:57:56.296Z,15.35
2016-09-26T01:58:56.224Z,15.44
2016-09-26T01:59:56.288Z,15.38
2016-09-26T02:00:56.220Z,15.41
2016-09-26T02:01:56.272Z,15.37
2016-09-26T02:02:56.260Z,15.41
2016-09-26T02:03:56.225Z,15.4
2016-09-26T02:04:56.162Z,15.47
2016-09-26T02:05:56.243Z,15.43
2016-09-26T02:06:56.255Z,15.43
2016-09-26T02:07:56.223Z,15.33
2016-09-26T02:08:56.260Z,15.4
2016-09-26T02:09:56.292Z,15.37
2016-09-26T02:10:56.474Z,15.34
2016-09-26T02:11:56.256Z,15.37
2016-09-26T02:12:56.287Z,15.34
2016-09-26T02:13:56.269Z,15.37
2016-09-26T02:14:56.307Z,15.43
2016-09-26T02:15:56.291Z,15.35
2016-09-26T02:16:56.199Z,15.37
2016-09-26T02:17:56.326Z,15.38
2016-09-26T02:18:56.321Z,15.37
2016-09-26T02:19:56.272Z,15.38
2016-09-26T02:20:56.284Z,15.38
2016-09-26T02:21:56.314Z,15.31
2016-09-26T02:22:56.366Z,15.38
2016-09-26T02:23:56.243Z,15.43
2016-09-26T02:24:56.326Z,15.31
2016-09-26T02:25:56.328Z,15.34
2016-09-26T02:26:56.496Z,15.37
2016-09-26T02:27:56.374Z,15.41
2016-09-26T02:28:56.392Z,15.35
2016-09-26T02:29:56.384Z,15.49
2016-09-26T02:30:56.332Z,15.34
2016-09-26T02:31:56.327Z,15.34
2016-09-26T02:32:56.395Z,15.31
2016-09-26T02:33:56.404Z,15.37
2016-09-26T02:34:56.396Z,15.35
2016-09-26T02:35:56.290Z,15.34
2016-09-26T02:36:56.323Z,15.45
2016-09-26T02:37:56.343Z,15.35
2016-09-26T02:38:56.330Z,15.4
2016-09-26T02:39:56.355Z,15.31
2016-09-26T02:40:56.414Z,15.38
2016-09-26T02:41:56.269Z,15.4
2016-09-26T02:42:56.462Z,15.37
2016-09-26T02:43:56.386Z,15.35
2016-09-26T02:44:56.414Z,15.49
2016-09-26T02:45:56.390Z,15.33
2016-09-26T02:46:56.397Z,15.37
2016-09-26T02:47:56.419Z,15.41
2016-09-26T02:48:56.404Z,15.33
2016-09-26T02:49:56.403Z,15.35
2016-09-26T02:50:56.364Z,15.35
2016-09-26T02:51:56.420Z,15.33
2016-09-26T02:52:56.339Z,15.38
2016-09-26T02:53:56.384Z,15.38
2016-09-26T02:54:56.414Z,15.41
2016-09-26T02:55:56.423Z,15.38
2016-09-26T02:56:56.392Z,15.34
2016-09-26T02:57:56.455Z,15.37
2016-09-26T02:58:56.508Z,15.44
2016-09-26T02:59:56.365Z,15.4
2016-09-26T03:00:56.436Z,15.47
2016-09-26T03:01:56.400Z,15.43
2016-09-26T03:02:56.469Z,15.38
2016-09-26T03:03:56.472Z,15.4
2016-09-26T03:04:56.482Z,15.4
2016-09-26T03:05:56.417Z,15.41
2016-09-26T03:06:56.408Z,15.37
2016-09-26T03:07:56.499Z,15.34
2016-09-26T03:08:56.503Z,15.45
2016-09-26T03:09:56.378Z,15.41
2016-09-26T03:10:56.414Z,15.45
2016-09-26T03:11:56.438Z,15.27
2016-09-26T03:12:56.505Z,15.26
2016-09-26T03:13:56.515Z,15.22
2016-09-26T03:14:56.580Z,15.38
2016-09-26T03:15:56.472Z,15.26
2016-09-26T03:16:56.396Z,15.26
2016-09-26T03:17:56.364Z,15.33
2016-09-26T03:18:56.407Z,15.33
2016-09-26T03:19:56.470Z,15.27
2016-09-26T03:20:56.423Z,15.25
2016-09-26T03:21:56.517Z,15.27
2016-09-26T03:22:56.408Z,15.27
2016-09-26T03:23:56.498Z,15.15
2016-09-26T03:24:56.424Z,15.25
2016-09-26T03:25:56.547Z,15.15
2016-09-26T03:26:56.503Z,15.25
2016-09-26T03:27:56.469Z,15.27
2016-09-26T03:28:56.481Z,15.15
2016-09-26T03:29:56.483Z,15.18
2016-09-26T03:30:56.634Z,15.18
2016-09-26T03:31:56.483Z,15.27
2016-09-26T03:32:56.522Z,15.13
2016-09-26T03:33:56.541Z,15.13
2016-09-26T03:34:56.567Z,15.2
2016-09-26T03:35:56.493Z,15.19
2016-09-26T03:36:56.499Z,15.13
2016-09-26T03:37:56.486Z,15.18
2016-09-26T03:38:56.531Z,15.18
2016-09-26T03:39:56.567Z,15.22
2016-09-26T03:40:56.516Z,15.12
2016-09-26T03:41:56.511Z,15.1
2016-09-26T03:42:56.519Z,15.16
2016-09-26T03:43:56.604Z,15.12
2016-09-26T03:44:56.527Z,15.12
2016-09-26T03:45:56.525Z,15.15
2016-09-26T03:46:56.720Z,15.08
2016-09-26T03:47:56.462Z,15.18
2016-09-26T03:48:56.457Z,15.16
2016-09-26T03:49:56.543Z,15.18
2016-09-26T03:50:56.549Z,15.08
2016-09-26T03:51:56.639Z,15.19
2016-09-26T03:52:56.521Z,15.08
2016-09-26T03:53:56.555Z,15.15
2016-09-26T03:54:56.597Z,15.12
2016-09-26T03:55:56.544Z,15.16
2016-09-26T03:56:56.546Z,15.08
2016-09-26T03:57:56.532Z,15.13
2016-09-26T03:58:56.504Z,15.12
2016-09-26T03:59:56.594Z,15.1
2016-09-26T04:00:56.605Z,15.1
2016-09-26T04:01:56.570Z,15.13
2016-09-26T04:02:56.769Z,15.15
2016-09-26T04:03:56.523Z,15.18
2016-09-26T04:04:56.624Z,15.15
2016-09-26T04:05:56.590Z,15.18
2016-09-26T04:06:56.597Z,15.08
2016-09-26T04:07:56.693Z,15.15
2016-09-26T04:08:56.580Z,15.07
2016-09-26T04:09:56.624Z,15.07
2016-09-26T04:10:56.613Z,15.18
2016-09-26T04:11:56.596Z,15.08
2016-09-26T04:12:56.684Z,15.13
2016-09-26T04:13:56.611Z,15.16
2016-09-26T04:14:56.615Z,15.15
2016-09-26T04:15:56.639Z,14.98
2016-09-26T04:16:56.684Z,15.1
2016-09-26T04:17:56.693Z,15.05
2016-09-26T04:18:56.742Z,15.01
2016-09-26T04:19:56.587Z,15.07
2016-09-26T04:20:56.694Z,14.95
2016-09-26T04:21:56.710Z,14.9
2016-09-26T04:22:56.623Z,14.89
2016-09-26T04:23:56.752Z,14.9
2016-09-26T04:24:56.639Z,14.93
2016-09-26T04:25:56.718Z,14.95
2016-09-26T04:26:56.694Z,14.83
2016-09-26T04:27:56.609Z,14.86
2016-09-26T04:28:56.646Z,14.89
2016-09-26T04:29:56.758Z,14.89
2016-09-26T04:30:56.607Z,14.87
2016-09-26T04:31:56.687Z,14.85
2016-09-26T04:32:56.652Z,14.79
2016-09-26T04:33:56.653Z,14.85
2016-09-26T04:34:56.817Z,14.75
2016-09-26T04:35:56.747Z,14.86
2016-09-26T04:36:56.743Z,14.8
2016-09-26T04:37:56.637Z,14.77
2016-09-26T04:38:56.669Z,14.8
2016-09-26T04:39:56.730Z,14.71
2016-09-26T04:40:56.637Z,14.7
2016-09-26T04:41:56.751Z,14.74
2016-09-26T04:42:56.702Z,14.69
2016-09-26T04:43:56.668Z,14.69
2016-09-26T04:44:56.689Z,14.59
2016-09-26T04:45:56.679Z,14.64
2016-09-26T04:46:56.690Z,14.6
2016-09-26T04:47:56.647Z,14.56
2016-09-26T04:48:56.786Z,14.52
2016-09-26T04:49:56.699Z,14.53
2016-09-26T04:50:56.916Z,14.49
2016-09-26T04:51:56.797Z,14.46
2016-09-26T04:52:56.707Z,14.34
2016-09-26T04:53:56.729Z,14.39
2016-09-26T04:54:56.722Z,14.38
2016-09-26T04:55:56.787Z,14.42
2016-09-26T04:56:56.719Z,14.38
2016-09-26T04:57:56.799Z,14.34
2016-09-26T04:58:56.808Z,14.49
2016-09-26T04:59:56.774Z,14.39
2016-09-26T05:00:56.746Z,14.44
2016-09-26T05:01:56.822Z,14.3
2016-09-26T05:02:56.688Z,14.38
2016-09-26T05:03:56.846Z,14.31
2016-09-26T05:04:56.741Z,14.3
2016-09-26T05:05:56.746Z,14.31
2016-09-26T05:06:56.983Z,14.27
2016-09-26T05:07:56.789Z,14.3
2016-09-26T05:08:56.725Z,14.28
2016-09-26T05:09:56.839Z,14.36
2016-09-26T05:10:56.820Z,14.28
2016-09-26T05:11:56.770Z,14.27
2016-09-26T05:12:56.772Z,14.24
2016-09-26T05:13:56.683Z,14.21
2016-09-26T05:14:56.839Z,14.2
2016-09-26T05:15:58.461Z,14.19
2016-09-26T05:16:56.811Z,14.2
2016-09-26T05:17:56.866Z,14.13
2016-09-26T05:18:56.852Z,14.15
2016-09-26T05:19:56.773Z,14.11
2016-09-26T05:20:56.800Z,14.03
2016-09-26T05:21:56.807Z,13.99
2016-09-26T05:22:57.024Z,13.99
2016-09-26T05:23:56.833Z,13.97
2016-09-26T05:24:56.841Z,13.99
2016-09-26T05:25:56.767Z,13.9
2016-09-26T05:26:56.845Z,13.84
2016-09-26T05:27:56.797Z,13.86
2016-09-26T05:28:56.820Z,13.93
2016-09-26T05:29:56.820Z,13.87
2016-09-26T05:30:56.740Z,13.83
2016-09-26T05:31:56.908Z,13.81
2016-09-26T05:32:56.828Z,13.72
2016-09-26T05:33:56.843Z,13.73
2016-09-26T05:34:56.877Z,13.7
2016-09-26T05:35:56.756Z,13.68
2016-09-26T05:36:56.794Z,13.63
2016-09-26T05:37:56.843Z,13.6
2016-09-26T05:38:56.959Z,13.57
2016-09-26T05:39:56.859Z,13.55
2016-09-26T05:40:56.901Z,13.58
2016-09-26T05:41:56.863Z,13.57
2016-09-26T05:42:56.937Z,13.45
2016-09-26T05:43:56.898Z,13.57
2016-09-26T05:44:56.959Z,13.54
2016-09-26T05:45:56.875Z,13.57
2016-09-26T05:46:56.902Z,13.57
2016-09-26T05:47:56.884Z,13.58
2016-09-26T05:48:56.889Z,13.53
2016-09-26T05:49:56.946Z,13.55
2016-09-26T05:50:56.909Z,13.55
2016-09-26T05:51:56.831Z,13.48
2016-09-26T05:52:56.832Z,13.5
2016-09-26T05:53:56.901Z,13.4
2016-09-26T05:54:57.040Z,13.45
2016-09-26T05:55:56.930Z,13.4
2016-09-26T05:56:56.876Z,13.4
2016-09-26T05:57:56.893Z,13.37
2016-09-26T05:58:56.890Z,13.39
2016-09-26T05:59:56.914Z,13.29
2016-09-26T06:00:56.901Z,13.37
2016-09-26T06:01:56.865Z,13.35
2016-09-26T06:02:56.986Z,13.31
2016-09-26T06:03:56.836Z,13.4
2016-09-26T06:04:56.962Z,13.37
2016-09-26T06:05:56.842Z,13.35
2016-09-26T06:06:56.841Z,13.21
2016-09-26T06:07:56.916Z,13.35
2016-09-26T06:08:56.930Z,13.16
2016-09-26T06:09:56.927Z,13.29
2016-09-26T06:10:57.129Z,13.31
2016-09-26T06:11:56.931Z,13.36
2016-09-26T06:12:56.876Z,13.31
2016-09-26T06:13:56.960Z,13.39
2016-09-26T06:14:56.895Z,13.37
2016-09-26T06:15:56.922Z,13.39
2016-09-26T06:16:56.967Z,13.47
2016-09-26T06:17:56.984Z,13.48
2016-09-26T06:18:56.943Z,13.37
2016-09-26T06:19:56.976Z,13.53
2016-09-26T06:20:56.954Z,13.5
2016-09-26T06:21:56.924Z,13.48
2016-09-26T06:22:56.939Z,13.4
2016-09-26T06:23:56.985Z,13.39
2016-09-26T06:24:57.046Z,13.54
2016-09-26T06:25:56.875Z,13.45
2016-09-26T06:26:57.141Z,13.45
2016-09-26T06:27:57.059Z,13.55
2016-09-26T06:28:56.970Z,13.5
2016-09-26T06:29:56.983Z,13.54
2016-09-26T06:30:56.982Z,13.55
2016-09-26T06:31:56.965Z,13.62
2016-09-26T06:32:57.066Z,13.66
2016-09-26T06:33:57.070Z,13.54
2016-09-26T06:34:57.034Z,13.6
2016-09-26T06:35:57.074Z,13.62
2016-09-26T06:36:57.057Z,13.72
2016-09-26T06:37:56.936Z,13.72
2016-09-26T06:38:57.505Z,13.76
2016-09-26T06:39:56.919Z,13.69
2016-09-26T06:40:57.016Z,13.86
2016-09-26T06:41:57.013Z,13.83
2016-09-26T06:42:57.185Z,13.87
2016-09-26T06:43:57.069Z,13.88
2016-09-26T06:44:57.009Z,13.86
2016-09-26T06:45:57.063Z,13.97
2016-09-26T06:46:57.125Z,14.03
2016-09-26T06:47:57.030Z,14.06
2016-09-26T06:48:57.086Z,14.16
2016-09-26T06:49:57.035Z,14.2
2016-09-26T06:50:57.070Z,14.3
2016-09-26T06:51:57.023Z,14.39
2016-09-26T06:52:57.088Z,14.44
2016-09-26T06:53:57.206Z,14.34
2016-09-26T06:54:57.231Z,14.41
2016-09-26T06:55:57.099Z,14.41
2016-09-26T06:56:57.246Z,14.52
2016-09-26T06:57:57.242Z,14.53
2016-09-26T06:58:57.242Z,14.46
2016-09-26T06:59:57.106Z,14.59
2016-09-26T07:00:57.214Z,14.69
2016-09-26T07:01:57.178Z,14.79
2016-09-26T07:02:57.039Z,14.87
2016-09-26T07:03:57.205Z,14.69
2016-09-26T07:04:57.167Z,14.85
2016-09-26T07:05:57.147Z,14.86
2016-09-26T07:06:57.122Z,14.93
2016-09-26T07:07:57.182Z,14.86
2016-09-26T07:08:57.167Z,14.75
2016-09-26T07:09:57.141Z,14.94
2016-09-26T07:10:57.237Z,15.13
2016-09-26T07:11:57.173Z,15.2
2016-09-26T07:12:57.182Z,15.19
2016-09-26T07:13:57.213Z,15.26
2016-09-26T07:14:57.663Z,15.35
2016-09-26T07:15:57.125Z,15.41
2016-09-26T07:16:57.197Z,15.41
2016-09-26T07:17:57.225Z,15.55
2016-09-26T07:18:57.102Z,15.56
2016-09-26T07:19:57.484Z,15.71
2016-09-26T07:20:57.178Z,15.7
2016-09-26T07:21:57.275Z,15.73
2016-09-26T07:22:57.123Z,15.74
2016-09-26T07:23:57.230Z,15.81
2016-09-26T07:24:57.234Z,15.93
2016-09-26T07:25:57.262Z,15.99
2016-09-26T07:26:57.168Z,15.77
2016-09-26T07:27:57.163Z,15.86
2016-09-26T07:28:57.246Z,16.08
2016-09-26T07:29:57.253Z,16.13
2016-09-26T07:30:57.309Z,16.18
2016-09-26T07:31:57.171Z,16.22
2016-09-26T07:32:57.308Z,16.26
2016-09-26T07:33:57.237Z,16.59
2016-09-26T07:34:57.284Z,16.4
2016-09-26T07:35:57.297Z,16.37
2016-09-26T07:36:57.234Z,16.45
2016-09-26T07:37:57.279Z,16.39
2016-09-26T07:38:57.239Z,16.59
2016-09-26T07:39:57.249Z,16.76
2016-09-26T07:40:57.285Z,16.7
2016-09-26T07:41:57.222Z,16.76
2016-09-26T07:42:57.315Z,16.77
2016-09-26T07:43:57.229Z,16.92
2016-09-26T07:44:57.281Z,16.99
2016-09-26T07:45:57.264Z,17.35
2016-09-26T07:46:57.399Z,17.6
2016-09-26T07:47:57.150Z,17.76
2016-09-26T07:48:57.217Z,17.87
2016-09-26T07:49:57.251Z,18.03
2016-09-26T07:50:57.216Z,18.17
2016-09-26T07:51:57.215Z,18.05
2016-09-26T07:52:57.324Z,17.94
2016-09-26T07:53:57.279Z,17.8
2016-09-26T07:54:57.341Z,18.05
2016-09-26T07:55:57.303Z,18.2
2016-09-26T07:56:57.295Z,18.35
2016-09-26T07:57:57.354Z,18.53
2016-09-26T07:58:57.249Z,18.71
2016-09-26T07:59:57.332Z,18.79
2016-09-26T08:00:57.314Z,18.57
2016-09-26T08:01:57.326Z,18.5
2016-09-26T08:02:57.451Z,18.41
2016-09-26T08:03:57.389Z,18.5
2016-09-26T08:04:57.281Z,18.57
2016-09-26T08:05:57.264Z,18.74
2016-09-26T08:06:58.042Z,18.69
2016-09-26T08:07:57.301Z,18.81
2016-09-26T08:08:57.384Z,19.13
2016-09-26T08:09:57.425Z,19.45
2016-09-26T08:10:57.262Z,19.53
2016-09-26T08:11:57.327Z,19.52
2016-09-26T08:12:57.377Z,19.65
2016-09-26T08:13:57.238Z,19.6
2016-09-26T08:14:57.324Z,19.7
2016-09-26T08:15:57.374Z,19.92
2016-09-26T08:16:57.291Z,19.87
2016-09-26T08:17:58.022Z,19.97
2016-09-26T08:18:57.762Z,20.08
2016-09-26T08:19:57.354Z,20.41
2016-09-26T08:20:57.334Z,20.57
2016-09-26T08:21:57.327Z,20.63
2016-09-26T08:22:57.272Z,20.57
2016-09-26T08:23:57.296Z,20.27
2016-09-26T08:24:57.445Z,20.15
2016-09-26T08:25:57.327Z,19.9
2016-09-26T08:26:57.376Z,19.63
2016-09-26T08:27:57.318Z,19.64
2016-09-26T08:28:57.323Z,19.79
2016-09-26T08:29:57.342Z,20.04
2016-09-26T08:30:57.307Z,20.26
2016-09-26T08:31:57.330Z,20.02
2016-09-26T08:32:57.471Z,20.19
2016-09-26T08:33:57.348Z,20.37
2016-09-26T08:34:57.599Z,20.38
2016-09-26T08:35:57.385Z,20.71
2016-09-26T08:36:57.376Z,20.26
2016-09-26T08:37:57.359Z,20.38
2016-09-26T08:38:57.349Z,20.61
2016-09-26T08:39:57.582Z,20.78
2016-09-26T08:40:57.536Z,20.63
2016-09-26T08:41:57.528Z,20.83
2016-09-26T08:42:57.332Z,21.06
2016-09-26T08:43:57.444Z,21.48
2016-09-26T08:44:57.449Z,21.66
2016-09-26T08:45:57.421Z,21.83
2016-09-26T08:46:57.295Z,21.33
2016-09-26T08:47:57.476Z,21.08
2016-09-26T08:48:57.382Z,21.03
2016-09-26T08:49:57.482Z,21.12
2016-09-26T08:50:57.744Z,21.15
2016-09-26T08:51:57.419Z,21.45
2016-09-26T08:52:57.395Z,21.68
2016-09-26T08:53:57.422Z,21.89
2016-09-26T08:54:57.450Z,22.2
2016-09-26T08:55:57.689Z,22.26
2016-09-26T08:56:57.521Z,22.23
2016-09-26T08:57:57.496Z,22.2
2016-09-26T08:58:57.455Z,21.83
2016-09-26T08:59:57.438Z,21.9
2016-09-26T09:00:57.530Z,21.82
2016-09-26T09:01:57.571Z,21.94
2016-09-26T09:02:57.423Z,21.83
2016-09-26T09:03:57.432Z,21.92
2016-09-26T09:04:57.501Z,22.3
2016-09-26T09:05:57.673Z,22.3
2016-09-26T09:06:57.757Z,22.52
2016-09-26T09:07:57.419Z,22.86
2016-09-26T09:08:57.515Z,22.48
2016-09-26T09:09:57.556Z,22.3
2016-09-26T09:10:57.456Z,22.55
2016-09-26T09:11:57.461Z,22.71
2016-09-26T09:12:57.518Z,23.18
2016-09-26T09:13:57.376Z,22.66
2016-09-26T09:14:57.579Z,22.36
2016-09-26T09:15:57.420Z,22.23
2016-09-26T09:16:57.566Z,22.51
2016-09-26T09:17:57.513Z,22.79
2016-09-26T09:18:57.483Z,22.81
2016-09-26T09:19:57.504Z,22.66
2016-09-26T09:20:57.498Z,22.51
2016-09-26T09:21:57.559Z,22.54
2016-09-26T09:22:57.567Z,22.66
2016-09-26T09:23:57.574Z,23.04
2016-09-26T09:24:57.457Z,23.07
2016-09-26T09:25:57.583Z,23.19
2016-09-26T09:26:57.469Z,23.24
2016-09-26T09:27:57.495Z,23.29
2016-09-26T09:30:26.543Z,23.12
2016-09-26T09:31:02.167Z,23.28
2016-09-26T09:32:00.346Z,23.5
2016-09-26T09:33:08.013Z,23.09
2016-09-26T09:34:04.910Z,23.38
2016-09-26T09:34:57.530Z,23.5
2016-09-26T09:35:57.624Z,23.63
2016-09-26T09:36:57.539Z,24.04
2016-09-26T09:37:57.546Z,23.62
2016-09-26T09:38:57.865Z,23.96
2016-09-26T09:39:57.504Z,24.22
2016-09-26T09:40:57.620Z,24.61
2016-09-26T09:41:57.617Z,24.42
2016-09-26T09:42:57.551Z,23.74
2016-09-26T09:43:57.740Z,23.32
2016-09-26T09:44:57.615Z,22.66
2016-09-26T09:45:57.524Z,22.33
2016-09-26T09:46:57.513Z,22.41
2016-09-26T09:47:57.567Z,22.18
2016-09-26T09:48:57.850Z,22.2
2016-09-26T09:49:57.515Z,22.31
2016-09-26T09:50:57.681Z,22.46
2016-09-26T09:51:57.617Z,22.45
2016-09-26T09:52:57.625Z,22.29
2016-09-26T09:53:57.522Z,22.42
2016-09-26T09:54:57.806Z,22.59
2016-09-26T09:55:57.637Z,22.79
2016-09-26T09:56:57.637Z,22.88
2016-09-26T09:57:57.585Z,22.82
2016-09-26T09:58:57.603Z,22.84
2016-09-26T09:59:57.731Z,22.59
2016-09-26T10:00:57.669Z,22.63
2016-09-26T10:01:57.583Z,22.34
2016-09-26T10:02:57.587Z,22.22
2016-09-26T10:03:57.734Z,21.45
2016-09-26T10:04:57.686Z,21.13
2016-09-26T10:05:57.707Z,21.08
2016-09-26T10:06:57.623Z,21.08
2016-09-26T10:07:57.775Z,21.09
2016-09-26T10:08:57.670Z,20.93
2016-09-26T10:09:57.676Z,21
2016-09-26T10:10:57.739Z,20.97
2016-09-26T10:11:57.626Z,21.22
2016-09-26T10:12:57.643Z,21.13
2016-09-26T10:13:57.637Z,20.94
2016-09-26T10:14:57.794Z,20.71
2016-09-26T10:15:57.773Z,20.74
2016-09-26T10:16:57.633Z,20.56
2016-09-26T10:17:57.664Z,20.74
2016-09-26T10:18:57.743Z,20.96
2016-09-26T10:19:57.727Z,20.93
2016-09-26T10:20:57.726Z,20.86
2016-09-26T10:21:57.785Z,21.16
2016-09-26T10:22:57.710Z,21.3
2016-09-26T10:23:57.721Z,21.56
2016-09-26T10:24:57.702Z,22.02
2016-09-26T10:25:57.768Z,22.57
2016-09-26T10:26:57.974Z,22.86
2016-09-26T10:27:58.304Z,23.34
2016-09-26T10:28:57.739Z,23.7
2016-09-26T10:29:57.699Z,24.29
2016-09-26T10:30:57.672Z,24.63
2016-09-26T10:31:57.715Z,24.49
2016-09-26T10:32:57.733Z,24.29
2016-09-26T10:33:57.861Z,24.07
2016-09-26T10:34:57.789Z,23.96
2016-09-26T10:35:57.690Z,23.45
2016-09-26T10:36:57.793Z,23.15
2016-09-26T10:37:57.717Z,23.66
2016-09-26T10:38:57.732Z,23.66
2016-09-26T10:39:57.861Z,24.09
2016-09-26T10:40:57.871Z,24.4
2016-09-26T10:41:57.692Z,24.77
2016-09-26T10:42:57.955Z,25.23
2016-09-26T10:43:57.695Z,25.49
2016-09-26T10:44:57.806Z,25.09
2016-09-26T10:45:57.881Z,24.51
2016-09-26T10:46:57.793Z,24.11
2016-09-26T10:47:57.826Z,24.07
2016-09-26T10:48:57.855Z,24.02
2016-09-26T10:49:57.870Z,24.36
2016-09-26T10:50:57.788Z,24.82
2016-09-26T10:51:57.879Z,24.52
2016-09-26T10:52:57.852Z,24.12
2016-09-26T10:53:57.906Z,24.37
2016-09-26T10:54:57.726Z,24.59
2016-09-26T10:55:57.795Z,24.19
2016-09-26T10:56:57.855Z,23.06
2016-09-26T10:57:57.864Z,22.82
2016-09-26T10:58:58.044Z,22.52
2016-09-26T10:59:57.796Z,23.12
2016-09-26T11:00:57.844Z,23.66
2016-09-26T11:01:57.789Z,22.57
2016-09-26T11:02:57.859Z,22.82
2016-09-26T11:03:57.838Z,22.91
2016-09-26T11:04:57.904Z,23.25
2016-09-26T11:05:57.883Z,22.92
2016-09-26T11:06:57.845Z,23.26
2016-09-26T11:07:57.857Z,23.25
2016-09-26T11:08:57.787Z,23.26
2016-09-26T11:09:57.837Z,23.77
2016-09-26T11:10:57.872Z,23.34
2016-09-26T11:11:58.021Z,22.91
2016-09-26T11:12:57.913Z,22.59
2016-09-26T11:13:57.897Z,24.15
2016-09-26T11:14:59.219Z,24.96
2016-09-26T11:15:58.106Z,25.51
2016-09-26T11:16:57.832Z,25.33
2016-09-26T11:17:57.924Z,24.44
2016-09-26T11:18:57.906Z,24.7
2016-09-26T11:19:57.952Z,24.46
2016-09-26T11:20:57.864Z,25
2016-09-26T11:21:57.770Z,25.12
2016-09-26T11:22:57.965Z,24.96
2016-09-26T11:23:58.017Z,24.52
2016-09-26T11:24:57.860Z,24.14
2016-09-26T11:25:57.913Z,23.64
2016-09-26T11:26:57.994Z,23.28
2016-09-26T11:27:59.005Z,23.01
2016-09-26T11:28:57.874Z,22.61
2016-09-26T11:29:57.979Z,22.48
2016-09-26T11:30:58.129Z,22.48
2016-09-26T11:31:58.672Z,22.38
2016-09-26T11:32:57.885Z,22.54
2016-09-26T11:33:57.937Z,22.54
2016-09-26T11:34:57.938Z,22.38
2016-09-26T11:35:57.878Z,22.42
2016-09-26T11:36:57.984Z,22.34
2016-09-26T11:37:57.939Z,22.24
2016-09-26T11:38:57.915Z,22.36
2016-09-26T11:39:58.031Z,22.3
2016-09-26T11:40:57.940Z,22.22
2016-09-26T11:41:57.938Z,22.07
2016-09-26T11:42:58.061Z,22.09
2016-09-26T11:43:58.010Z,22
2016-09-26T11:44:57.912Z,21.67
2016-09-26T11:45:57.933Z,21.77
2016-09-26T11:46:58.271Z,21.86
2016-09-26T11:47:58.009Z,21.53
2016-09-26T11:48:58.033Z,21.38
2016-09-26T11:49:58.067Z,21.38
2016-09-26T11:50:58.019Z,21.55
2016-09-26T11:51:58.177Z,21.53
2016-09-26T11:52:57.961Z,21.64
2016-09-26T11:53:57.915Z,21.73
2016-09-26T11:54:58.096Z,21.86
2016-09-26T11:55:57.989Z,21.89
2016-09-26T11:56:57.974Z,22.07
2016-09-26T11:57:57.953Z,22.11
2016-09-26T11:58:58.028Z,22.18
2016-09-26T11:59:57.956Z,22.2
2016-09-26T12:00:58.060Z,22.22
2016-09-26T12:01:58.675Z,22.38
2016-09-26T12:02:58.091Z,22.31
2016-09-26T12:03:58.056Z,22.41
2016-09-26T12:04:58.070Z,22.34
2016-09-26T12:05:57.987Z,22.44
2016-09-26T12:06:58.277Z,22.2
2016-09-26T12:07:58.083Z,22
2016-09-26T12:08:58.040Z,22
2016-09-26T12:09:57.951Z,21.94
2016-09-26T12:10:58.009Z,22.09
2016-09-26T12:11:58.045Z,22.2
2016-09-26T12:12:58.009Z,22.27
2016-09-26T12:13:59.372Z,22.16
2016-09-26T12:14:58.041Z,22.22
2016-09-26T12:15:58.058Z,22.29
2016-09-26T12:16:58.057Z,22.29
2016-09-26T12:17:58.050Z,22.15
2016-09-26T12:18:59.070Z,21.99
2016-09-26T12:19:58.119Z,22.2
2016-09-26T12:20:58.049Z,22.44
2016-09-26T12:21:57.991Z,22.76
2016-09-26T12:22:58.066Z,23.21
2016-09-26T12:23:58.466Z,23.85
2016-09-26T12:24:57.997Z,24.34
2016-09-26T12:25:57.985Z,24.02
2016-09-26T12:26:58.214Z,23.71
2016-09-26T12:27:58.065Z,23.34
2016-09-26T12:28:58.131Z,22.91
2016-09-26T12:29:58.086Z,23.26
2016-09-26T12:30:58.061Z,23.7
2016-09-26T12:31:58.152Z,24.02
2016-09-26T12:32:58.086Z,24.24
2016-09-26T12:33:58.009Z,24.18
2016-09-26T12:34:58.373Z,24.11
2016-09-26T12:35:58.215Z,24.11
2016-09-26T12:36:58.009Z,24.17
2016-09-26T12:37:58.166Z,23.29
2016-09-26T12:38:58.199Z,23.57
2016-09-26T12:39:58.177Z,23.87
2016-09-26T12:40:58.165Z,24.42
2016-09-26T12:41:58.136Z,25.38
2016-09-26T12:42:58.128Z,24.93
2016-09-26T12:43:58.088Z,24.78
2016-09-26T12:44:58.217Z,24.12
2016-09-26T12:45:58.190Z,24.07
2016-09-26T12:46:58.112Z,24.26
2016-09-26T12:47:58.156Z,24.74
2016-09-26T12:48:58.197Z,25
2016-09-26T12:49:58.051Z,24.69
2016-09-26T12:50:58.298Z,25.07
2016-09-26T12:51:58.210Z,24.7
2016-09-26T12:52:58.142Z,25.05
2016-09-26T12:53:58.218Z,25.69
2016-09-26T12:54:58.091Z,25.48
2016-09-26T12:55:58.284Z,26.31
2016-09-26T12:56:58.141Z,26.38
2016-09-26T12:57:58.167Z,26.64